UHBB 090900Z 16003MPS CAVOK M15/M20 Q1023 R18/090060 NOSIG RMK QFE752/1003
QNH:(hPa/inHg/mmHg)1023 / 30.21 / 767
QFE:(hPa/inHg/mmHg)999 / 29.51 / 750
Temperature-15
Dew Point-20
Visibility> 10000
WeatherCAVOK
Cloud Cover
Transition Height900 m./3600 ft.
Transition LevelFL50
SQUAWK